createdAt,value
2022-08-11T06:09:34.397Z,100.00
2022-08-11T06:12:20.269Z,100.00
2022-08-11T06:15:01.447Z,100.00
2022-08-11T06:17:48.567Z,100.00
2022-08-11T06:20:26.760Z,100.00
2022-08-11T06:23:08.233Z,100.00
2022-08-11T06:25:47.910Z,100.00
2022-08-11T06:28:34.842Z,100.00
2022-08-11T06:31:18.837Z,100.00
2022-08-11T06:34:12.121Z,100.00
2022-08-11T06:37:21.267Z,100.00
2022-08-11T06:40:11.568Z,100.00
2022-08-11T06:42:59.074Z,100.00
2022-08-11T06:45:43.490Z,100.00
2022-08-11T06:48:23.460Z,100.00
2022-08-11T06:51:13.482Z,100.00
2022-08-11T06:54:04.404Z,100.00
2022-08-11T07:00:33.093Z,100.00
2022-08-11T07:03:14.804Z,100.00
2022-08-11T07:05:57.121Z,100.00
2022-08-11T07:09:25.121Z,100.00
2022-08-11T07:12:31.991Z,100.00
2022-08-11T07:16:10.835Z,100.00
2022-08-11T07:18:43.366Z,100.00
2022-08-11T07:21:59.916Z,100.00
2022-08-11T07:25:02.244Z,100.00
2022-08-11T07:28:20.743Z,100.00
2022-08-11T07:31:08.185Z,100.00
2022-08-11T07:34:06.376Z,100.00
2022-08-11T07:36:54.788Z,100.00
2022-08-11T07:39:37.236Z,100.00
2022-08-11T07:42:17.504Z,100.00
2022-08-11T07:45:12.642Z,100.00
2022-08-11T07:48:04.763Z,100.00
2022-08-11T07:50:57.614Z,100.00
2022-08-11T07:53:57.887Z,100.00
2022-08-11T07:56:54.413Z,100.00
2022-08-11T08:00:03.411Z,100.00
2022-08-11T08:03:03.863Z,100.00
2022-08-11T08:05:54.283Z,100.00
2022-08-11T08:08:43.981Z,100.00
2022-08-11T08:11:38.047Z,100.00
2022-08-11T08:14:28.463Z,100.00
2022-08-11T08:17:17.887Z,100.00
2022-08-11T08:19:59.375Z,100.00
2022-08-11T08:22:38.795Z,100.00
2022-08-11T08:25:18.842Z,100.00
2022-08-11T08:27:58.571Z,100.00
2022-08-11T08:30:48.572Z,100.00
2022-08-11T08:33:28.711Z,100.00
2022-08-11T08:36:17.294Z,100.00
2022-08-11T08:38:57.405Z,100.00
2022-08-11T08:41:39.925Z,100.00
2022-08-11T08:44:37.664Z,100.00
2022-08-11T08:47:41.048Z,100.00
2022-08-11T08:50:19.983Z,100.00
2022-08-11T08:53:07.601Z,100.00
2022-08-11T08:55:46.090Z,100.00
2022-08-11T08:58:25.514Z,100.00
2022-08-11T09:01:04.451Z,100.00
2022-08-11T09:04:06.753Z,100.00
2022-08-11T09:06:43.463Z,100.00
2022-08-11T09:09:28.367Z,100.00
2022-08-11T09:12:07.215Z,100.00
2022-08-11T09:15:04.123Z,100.00
2022-08-11T09:17:45.439Z,100.00
2022-08-11T09:20:25.963Z,100.00
2022-08-11T09:24:06.609Z,100.00
2022-08-11T09:26:32.024Z,100.00
2022-08-11T09:29:11.010Z,100.00
2022-08-11T09:31:49.295Z,99.76
2022-08-11T09:34:27.688Z,94.95
2022-08-11T09:37:55.385Z,92.48
2022-08-11T09:40:33.965Z,90.38
2022-08-11T09:43:29.027Z,84.50
2022-08-11T09:46:06.676Z,79.87
2022-08-11T09:48:47.902Z,80.27
2022-08-11T09:51:26.252Z,71.54
2022-08-11T09:54:06.873Z,75.24
2022-08-11T09:56:56.391Z,70.73
2022-08-11T09:59:36.977Z,66.35
2022-08-11T10:02:14.821Z,65.17
2022-08-11T10:04:52.972Z,65.81
2022-08-11T10:07:27.588Z,66.98
2022-08-11T10:10:07.213Z,67.50
2022-08-11T10:12:51.791Z,68.92
2022-08-11T10:15:38.687Z,66.43
2022-08-11T10:18:32.383Z,64.23
2022-08-11T10:21:15.576Z,59.92
2022-08-11T10:24:06.024Z,61.71
2022-08-11T10:27:00.362Z,59.55
2022-08-11T10:29:58.182Z,53.99
2022-08-11T10:32:58.604Z,56.29
2022-08-11T10:35:37.372Z,58.34
2022-08-11T10:38:17.223Z,62.77
2022-08-11T10:41:14.983Z,58.72
2022-08-11T10:44:01.722Z,53.49
2022-08-11T10:46:54.067Z,52.13
2022-08-11T10:49:35.240Z,51.33
2022-08-11T10:52:24.150Z,53.36
2022-08-11T10:55:13.519Z,50.90
2022-08-11T10:58:04.643Z,48.99
2022-08-11T11:00:42.579Z,50.80
2022-08-11T11:03:22.960Z,52.67
2022-08-11T11:06:28.562Z,48.64
2022-08-11T11:09:12.033Z,48.64
2022-08-11T11:12:08.557Z,45.57
2022-08-11T11:14:59.606Z,48.10
2022-08-11T11:17:55.640Z,49.83
2022-08-11T11:20:47.065Z,49.26
2022-08-11T11:23:32.500Z,49.10
2022-08-11T11:26:39.141Z,47.60
2022-08-11T11:29:55.063Z,44.64
2022-08-11T11:32:49.426Z,45.64
2022-08-11T11:35:39.501Z,45.45
2022-08-11T11:38:16.472Z,44.73
2022-08-11T11:41:09.390Z,45.80
2022-08-11T11:43:47.152Z,46.92
2022-08-11T11:46:29.617Z,44.91
2022-08-11T11:49:16.689Z,44.72
2022-08-11T11:51:56.493Z,44.45
2022-08-11T11:54:36.974Z,43.37
2022-08-11T11:57:32.320Z,45.12
2022-08-11T12:00:24.212Z,44.32
2022-08-11T12:03:14.738Z,43.47
2022-08-11T14:14:13.993Z,32.00
2022-08-11T14:16:54.423Z,32.54
2022-08-11T14:19:31.623Z,32.17
2022-08-11T14:22:08.490Z,32.59
2022-08-11T14:24:49.927Z,32.43
2022-08-11T14:28:29.814Z,32.66
2022-08-11T14:31:00.444Z,33.10
2022-08-11T14:33:58.806Z,33.11
2022-08-11T14:36:41.706Z,33.08
2022-08-11T14:39:22.425Z,33.86
2022-08-11T14:42:14.762Z,33.72
2022-08-11T14:45:06.923Z,34.44
2022-08-11T14:47:51.077Z,34.64
2022-08-11T14:50:30.844Z,34.55
2022-08-11T14:53:14.285Z,34.70
2022-08-11T14:56:09.031Z,35.32
2022-08-11T14:58:47.255Z,35.78
2022-08-11T15:01:36.762Z,35.32
2022-08-11T15:04:35.201Z,36.15
2022-08-11T15:07:16.811Z,36.85
2022-08-11T15:10:12.161Z,37.22
2022-08-11T15:12:50.262Z,38.40
2022-08-11T15:15:41.514Z,38.60
2022-08-11T15:18:20.955Z,39.86
2022-08-11T15:21:13.030Z,40.52
2022-08-11T15:24:02.325Z,41.05
2022-08-11T15:26:55.689Z,42.54
2022-08-11T15:29:48.309Z,43.88
2022-08-11T15:32:38.462Z,44.04
2022-08-11T15:35:38.782Z,44.19
2022-08-11T15:38:23.174Z,44.56
2022-08-11T15:41:13.731Z,45.02
2022-08-11T15:44:10.350Z,45.80
2022-08-11T15:46:55.435Z,47.06
2022-08-11T15:50:11.075Z,48.28
2022-08-11T15:52:39.644Z,46.99
2022-08-11T15:55:21.788Z,46.43
2022-08-11T15:58:10.899Z,48.28
2022-08-11T16:01:04.240Z,48.29
2022-08-11T16:04:08.736Z,50.06
2022-08-11T16:07:00.970Z,52.50
2022-08-11T16:09:48.096Z,53.70
2022-08-11T16:12:34.976Z,56.33
2022-08-11T16:15:26.611Z,55.64
2022-08-11T16:18:08.559Z,55.11
2022-08-11T16:20:47.021Z,54.31
2022-08-11T16:23:27.748Z,54.20
2022-08-11T16:27:07.904Z,54.40
2022-08-11T16:29:06.288Z,55.67
2022-08-11T16:32:06.181Z,56.76
2022-08-11T16:34:56.989Z,58.83
2022-08-11T16:40:41.093Z,61.46
2022-08-11T16:43:34.372Z,61.24
2022-08-11T16:46:33.661Z,60.86
2022-08-11T16:49:12.706Z,61.94
2022-08-11T16:51:48.591Z,63.30
2022-08-11T16:54:24.498Z,62.99
2022-08-11T17:47:25.587Z,80.46
2022-08-11T17:50:14.592Z,81.82
2022-08-11T17:53:07.629Z,83.43
2022-08-11T18:55:16.744Z,100.00
2022-08-11T18:58:06.884Z,100.00
2022-08-11T19:00:56.984Z,100.00
